createdAt,value
2018-05-11T00:00:37.876Z,25.10
2018-05-11T00:01:37.959Z,26.00
2018-05-11T00:02:38.167Z,29.40
2018-05-11T00:03:38.335Z,27.70
2018-05-11T00:04:38.518Z,27.50
2018-05-11T00:05:38.683Z,29.00
2018-05-11T00:06:38.839Z,26.20
2018-05-11T00:07:38.998Z,28.20
2018-05-11T00:08:39.199Z,27.60
2018-05-11T00:09:39.595Z,32.80
2018-05-11T00:10:39.513Z,30.00
2018-05-11T00:11:39.736Z,30.00
2018-05-11T00:13:40.040Z,27.90
2018-05-11T00:14:40.199Z,26.60
2018-05-11T00:15:40.418Z,27.50
2018-05-11T00:16:40.553Z,26.90
2018-05-11T00:17:40.733Z,30.40
2018-05-11T00:18:40.887Z,30.60
2018-05-11T00:19:41.613Z,29.60
2018-05-11T00:20:41.267Z,31.50
2018-05-11T00:21:41.410Z,28.90
2018-05-11T00:22:42.162Z,29.60
2018-05-11T00:23:41.773Z,29.40
2018-05-11T00:24:41.958Z,29.30
2018-05-11T00:25:42.130Z,27.50
2018-05-11T00:26:42.316Z,29.80
2018-05-11T00:27:42.496Z,28.00
2018-05-11T00:28:42.696Z,24.30
2018-05-11T00:29:42.862Z,24.90
2018-05-11T00:30:42.987Z,25.90
2018-05-11T00:31:43.180Z,25.70
2018-05-11T00:32:43.826Z,23.80
2018-05-11T00:33:43.509Z,24.30
2018-05-11T00:34:43.709Z,23.00
2018-05-11T00:35:43.851Z,21.80
2018-05-11T00:36:44.024Z,22.50
2018-05-11T00:37:44.189Z,22.10
2018-05-11T00:38:44.373Z,24.30
2018-05-11T00:39:44.559Z,24.80
2018-05-11T00:40:44.699Z,22.60
2018-05-11T00:41:44.867Z,23.60
2018-05-11T00:42:45.047Z,21.80
2018-05-11T00:43:45.241Z,21.60
2018-05-11T00:44:45.382Z,20.60
2018-05-11T00:45:45.603Z,20.70
2018-05-11T00:46:45.754Z,21.50
2018-05-11T00:47:45.883Z,19.20
2018-05-11T00:48:46.077Z,20.80
2018-05-11T00:49:46.221Z,22.60
2018-05-11T00:50:46.430Z,19.40
2018-05-11T00:51:46.566Z,18.50
2018-05-11T00:52:46.753Z,19.30
2018-05-11T00:53:46.906Z,18.40
2018-05-11T00:54:47.068Z,19.50
2018-05-11T00:55:47.257Z,19.70
2018-05-11T00:56:47.424Z,20.00
2018-05-11T00:57:47.592Z,19.10
2018-05-11T00:58:47.768Z,19.00
2018-05-11T00:59:47.923Z,18.40
2018-05-11T01:00:48.110Z,18.30
2018-05-11T01:01:48.255Z,20.30
2018-05-11T01:02:48.439Z,21.20
2018-05-11T01:03:48.622Z,19.60
2018-05-11T01:04:48.822Z,20.30
2018-05-11T01:05:48.941Z,19.20
2018-05-11T01:07:49.273Z,21.30
2018-05-11T01:08:49.465Z,19.30
2018-05-11T01:09:49.613Z,19.80
2018-05-11T01:10:49.842Z,18.80
2018-05-11T01:12:50.151Z,18.90
2018-05-11T01:13:50.320Z,18.30
2018-05-11T01:14:50.549Z,20.00
2018-05-11T01:15:50.674Z,20.50
2018-05-11T01:16:50.916Z,18.20
2018-05-11T01:17:51.030Z,17.80
2018-05-11T01:18:51.206Z,18.10
2018-05-11T01:19:51.359Z,20.00
2018-05-11T01:20:51.555Z,18.80
2018-05-11T01:21:51.737Z,18.40
2018-05-11T01:22:51.890Z,19.80
2018-05-11T01:23:52.061Z,21.00
2018-05-11T01:24:52.232Z,20.40
2018-05-11T01:25:52.417Z,19.80
2018-05-11T01:26:52.579Z,19.90
2018-05-11T01:27:52.740Z,19.50
2018-05-11T01:28:52.908Z,18.10
2018-05-11T01:29:53.097Z,19.20
2018-05-11T01:30:53.312Z,20.00
2018-05-11T01:31:53.441Z,18.70
2018-05-11T01:32:53.624Z,18.60
2018-05-11T01:33:53.770Z,18.00
2018-05-11T01:34:53.957Z,19.20
2018-05-11T01:35:54.135Z,17.70
2018-05-11T01:36:54.300Z,19.20
2018-05-11T01:37:54.495Z,18.70
2018-05-11T01:38:54.686Z,17.70
2018-05-11T01:39:54.941Z,18.00
2018-05-11T01:40:55.008Z,19.10
2018-05-11T01:41:55.179Z,18.70
2018-05-11T01:42:55.362Z,18.30
2018-05-11T01:43:55.556Z,18.70
2018-05-11T01:44:55.705Z,18.70
2018-05-11T01:45:55.903Z,19.50
2018-05-11T01:46:56.072Z,18.30
2018-05-11T01:47:56.238Z,16.10
2018-05-11T01:48:56.442Z,17.50
2018-05-11T01:49:56.559Z,18.20
2018-05-11T01:50:57.700Z,17.30
2018-05-11T01:51:56.916Z,19.70
2018-05-11T01:52:57.087Z,18.40
2018-05-11T01:53:57.256Z,16.40
2018-05-11T01:54:57.433Z,18.10
2018-05-11T01:55:57.614Z,19.20
2018-05-11T01:56:57.797Z,16.80
2018-05-11T01:57:57.965Z,20.40
2018-05-11T01:58:58.133Z,18.50
2018-05-11T01:59:58.297Z,17.00
2018-05-11T02:00:58.468Z,17.20
2018-05-11T02:01:58.646Z,17.00
2018-05-11T02:02:58.837Z,17.50
2018-05-11T02:03:58.974Z,17.40
2018-05-11T02:04:59.154Z,18.70
2018-05-11T02:05:59.329Z,17.30
2018-05-11T02:06:59.529Z,19.80
2018-05-11T02:07:59.678Z,18.40
2018-05-11T02:08:59.853Z,18.60
2018-05-11T02:10:00.020Z,17.60
2018-05-11T02:11:00.162Z,16.90
2018-05-11T02:12:00.335Z,17.30
2018-05-11T02:13:00.501Z,17.20
2018-05-11T02:14:00.664Z,20.10
2018-05-11T02:15:00.834Z,16.80
2018-05-11T02:16:01.002Z,18.40
2018-05-11T02:17:01.193Z,16.40
2018-05-11T02:18:01.369Z,17.80
2018-05-11T02:19:01.545Z,16.00
2018-05-11T02:20:01.754Z,16.30
2018-05-11T02:21:01.882Z,17.10
2018-05-11T02:22:02.084Z,16.30
2018-05-11T02:23:02.224Z,16.00
2018-05-11T02:24:02.399Z,16.30
2018-05-11T02:25:02.556Z,16.20
2018-05-11T02:26:02.808Z,18.90
2018-05-11T02:27:02.918Z,17.60
2018-05-11T02:28:03.128Z,18.80
2018-05-11T02:29:03.257Z,16.80
2018-05-11T02:30:03.452Z,15.80
2018-05-11T02:31:03.610Z,17.60
2018-05-11T02:32:03.785Z,17.70
2018-05-11T02:33:03.909Z,18.20
2018-05-11T02:34:04.129Z,17.90
2018-05-11T02:35:04.256Z,19.10
2018-05-11T02:36:04.425Z,16.00
2018-05-11T02:37:04.615Z,16.40
2018-05-11T02:38:04.773Z,17.70
2018-05-11T02:39:04.952Z,17.60
2018-05-11T02:40:05.116Z,16.80
2018-05-11T02:41:05.342Z,18.20
2018-05-11T02:42:05.492Z,17.10
2018-05-11T02:43:05.721Z,16.40
2018-05-11T02:44:05.817Z,14.90
2018-05-11T02:45:05.995Z,16.90
2018-05-11T02:46:06.152Z,17.30
2018-05-11T02:47:06.354Z,16.50
2018-05-11T02:48:06.525Z,19.50
2018-05-11T02:49:06.674Z,16.00
2018-05-11T02:50:06.844Z,18.20
2018-05-11T02:51:07.015Z,17.20
2018-05-11T02:52:07.210Z,18.50
2018-05-11T02:53:07.374Z,17.90
2018-05-11T02:54:07.548Z,19.60
2018-05-11T02:55:07.708Z,19.20
2018-05-11T02:56:07.857Z,18.40
2018-05-11T02:57:08.011Z,17.70
2018-05-11T02:58:08.211Z,18.90
2018-05-11T02:59:08.377Z,17.20
2018-05-11T03:00:08.516Z,18.00
2018-05-11T03:01:08.749Z,16.40
2018-05-11T03:02:08.855Z,16.30
2018-05-11T03:03:09.025Z,16.90
2018-05-11T03:04:09.202Z,20.80
2018-05-11T03:05:09.396Z,19.80
2018-05-11T03:06:09.562Z,16.40
2018-05-11T03:07:09.709Z,18.20
2018-05-11T03:08:09.871Z,17.30
2018-05-11T03:09:10.051Z,17.80
2018-05-11T03:10:10.245Z,17.70
2018-05-11T03:11:10.407Z,17.30
2018-05-11T03:12:10.583Z,18.60
2018-05-11T03:13:10.750Z,18.60
2018-05-11T03:14:10.942Z,16.60
2018-05-11T03:15:11.091Z,19.40
2018-05-11T03:16:11.263Z,18.70
2018-05-11T03:17:11.449Z,17.40
2018-05-11T03:18:11.645Z,18.00
2018-05-11T03:19:11.852Z,18.20
2018-05-11T03:20:12.000Z,17.10
2018-05-11T03:21:12.199Z,17.70
2018-05-11T03:22:12.332Z,19.00
2018-05-11T03:23:12.493Z,17.60
2018-05-11T03:24:12.711Z,16.90
2018-05-11T03:25:12.852Z,18.80
2018-05-11T03:26:13.051Z,18.70
2018-05-11T03:27:13.225Z,18.40
2018-05-11T03:28:13.426Z,16.70
2018-05-11T03:29:13.643Z,19.30
2018-05-11T03:30:13.774Z,17.60
2018-05-11T03:31:13.982Z,18.90
2018-05-11T03:32:14.101Z,20.10
2018-05-11T03:33:14.278Z,17.10
2018-05-11T03:34:14.477Z,18.80
2018-05-11T03:35:14.649Z,16.80
2018-05-11T03:36:15.068Z,16.50
2018-05-11T03:37:14.997Z,20.50
2018-05-11T03:38:15.176Z,19.20
2018-05-11T03:39:15.348Z,18.90
2018-05-11T03:40:15.514Z,18.00
2018-05-11T03:41:15.678Z,17.30
2018-05-11T03:42:15.868Z,17.70
2018-05-11T03:43:16.003Z,18.80
2018-05-11T03:44:16.188Z,16.90
2018-05-11T03:45:16.355Z,19.50
2018-05-11T03:46:16.545Z,18.00
2018-05-11T03:47:16.705Z,18.40
2018-05-11T03:48:16.873Z,17.10
2018-05-11T03:49:17.059Z,19.40
2018-05-11T03:50:17.218Z,17.80
2018-05-11T03:51:17.402Z,17.40
2018-05-11T03:52:17.541Z,16.90
2018-05-11T03:53:17.700Z,18.20
2018-05-11T03:54:18.185Z,19.80
2018-05-11T03:55:18.064Z,17.80
2018-05-11T03:56:18.243Z,17.90
2018-05-11T03:57:18.403Z,20.00
2018-05-11T03:58:18.593Z,16.50
2018-05-11T03:59:18.777Z,17.60
2018-05-11T04:00:18.920Z,17.50
2018-05-11T04:01:19.090Z,17.60
2018-05-11T04:02:19.255Z,16.90
2018-05-11T04:03:19.449Z,17.70
2018-05-11T04:04:19.618Z,17.70
2018-05-11T04:05:19.783Z,17.60
2018-05-11T04:06:19.970Z,18.50
2018-05-11T04:07:20.110Z,18.00
2018-05-11T04:08:20.287Z,17.90
2018-05-11T04:09:20.501Z,18.40
2018-05-11T04:10:20.656Z,17.40
2018-05-11T04:11:20.828Z,17.90
2018-05-11T04:12:21.008Z,19.10
2018-05-11T04:13:21.152Z,19.40
2018-05-11T04:14:21.353Z,16.80
2018-05-11T04:15:21.533Z,18.20
2018-05-11T04:16:21.694Z,17.30
2018-05-11T04:18:22.044Z,17.90
2018-05-11T04:19:22.226Z,17.60
2018-05-11T04:20:22.408Z,18.70
2018-05-11T04:21:22.633Z,16.00
2018-05-11T04:22:22.801Z,17.60
2018-05-11T04:23:22.985Z,17.10
2018-05-11T04:24:23.457Z,17.80
2018-05-11T04:25:23.337Z,16.10
2018-05-11T04:26:23.575Z,19.10
2018-05-11T04:27:23.687Z,17.40
2018-05-11T04:28:23.863Z,17.40
2018-05-11T04:29:24.038Z,17.40
2018-05-11T04:30:24.227Z,16.80
2018-05-11T04:31:24.431Z,18.10
2018-05-11T04:32:24.542Z,16.20
2018-05-11T04:33:24.695Z,21.00
2018-05-11T04:34:24.860Z,17.50
2018-05-11T04:35:25.037Z,17.10
2018-05-11T04:36:25.208Z,16.80
2018-05-11T04:37:25.670Z,19.10
2018-05-11T04:38:25.532Z,16.00
2018-05-11T04:39:25.701Z,15.20
2018-05-11T04:41:26.048Z,17.00
2018-05-11T04:42:26.237Z,16.90
2018-05-11T04:43:26.396Z,17.10
2018-05-11T04:44:26.587Z,17.00
2018-05-11T04:45:26.755Z,17.80
2018-05-11T04:46:26.914Z,18.90
2018-05-11T04:47:27.108Z,18.20
2018-05-11T04:48:27.243Z,16.50
2018-05-11T04:49:27.434Z,19.20
2018-05-11T04:50:28.250Z,16.30
2018-05-11T04:51:27.766Z,16.10
2018-05-11T04:52:27.936Z,18.50
2018-05-11T04:53:28.116Z,18.30
2018-05-11T04:54:28.273Z,17.30
2018-05-11T04:55:28.479Z,20.20
2018-05-11T04:56:28.631Z,19.50
2018-05-11T04:57:28.821Z,17.30
2018-05-11T04:58:28.980Z,16.90
2018-05-11T04:59:29.157Z,17.80
2018-05-11T05:00:29.329Z,17.00
2018-05-11T05:01:29.464Z,17.60
2018-05-11T05:02:29.764Z,21.00
2018-05-11T05:03:29.857Z,17.60
2018-05-11T05:04:29.999Z,17.40
2018-05-11T05:05:30.174Z,16.90
2018-05-11T05:06:30.349Z,19.60
2018-05-11T05:07:30.592Z,18.50
2018-05-11T05:08:30.692Z,17.20
2018-05-11T05:09:30.866Z,16.70
2018-05-11T05:10:31.041Z,20.40
2018-05-11T05:11:31.175Z,17.80
2018-05-11T05:12:31.375Z,18.40
2018-05-11T05:13:31.531Z,16.60
2018-05-11T05:14:31.697Z,18.80
2018-05-11T05:15:31.868Z,16.30
2018-05-11T05:16:32.072Z,19.40
2018-05-11T05:17:32.204Z,17.00
2018-05-11T05:18:32.411Z,16.20
2018-05-11T05:19:32.597Z,18.40
2018-05-11T05:20:32.812Z,18.30
2018-05-11T05:21:32.937Z,18.80
2018-05-11T05:22:33.106Z,21.70
2018-05-11T05:23:33.286Z,16.80
2018-05-11T05:24:33.482Z,16.10
2018-05-11T05:25:33.650Z,17.70
2018-05-11T05:26:33.829Z,17.20
2018-05-11T05:27:33.997Z,18.40
2018-05-11T05:28:34.199Z,17.80
2018-05-11T05:29:34.412Z,17.70
2018-05-11T05:30:34.561Z,17.90
2018-05-11T05:31:34.769Z,18.80
2018-05-11T05:32:34.893Z,18.30
2018-05-11T05:33:35.075Z,16.90
2018-05-11T05:34:35.229Z,17.20
2018-05-11T05:35:35.432Z,16.60
2018-05-11T05:36:35.579Z,18.20
2018-05-11T05:37:35.743Z,16.50
2018-05-11T05:38:35.921Z,18.30
2018-05-11T05:39:36.102Z,15.80
2018-05-11T05:40:36.274Z,18.50
2018-05-11T05:41:36.456Z,20.50
2018-05-11T05:42:36.634Z,17.20
2018-05-11T05:43:36.821Z,16.40
2018-05-11T05:44:36.998Z,18.80
2018-05-11T05:45:37.182Z,17.80
2018-05-11T05:46:37.363Z,16.30
2018-05-11T05:47:37.541Z,16.90
2018-05-11T05:48:37.734Z,15.40
2018-05-11T05:49:37.903Z,17.30
2018-05-11T05:50:38.093Z,16.40
2018-05-11T05:51:38.281Z,19.70
2018-05-11T05:52:38.449Z,15.50
2018-05-11T05:53:38.654Z,16.50
2018-05-11T05:54:38.814Z,17.40
2018-05-11T05:55:38.994Z,17.80
2018-05-11T05:56:39.182Z,18.70
2018-05-11T05:57:39.361Z,16.40
2018-05-11T05:58:39.539Z,15.20
2018-05-11T05:59:39.725Z,15.10
2018-05-11T06:01:40.081Z,19.40
2018-05-11T06:02:40.264Z,17.50
2018-05-11T06:03:40.445Z,16.70
2018-05-11T06:04:40.736Z,17.10
2018-05-11T06:05:40.810Z,15.40
2018-05-11T06:06:41.002Z,16.00
2018-05-11T06:07:41.178Z,14.60
2018-05-11T06:08:41.356Z,15.50
2018-05-11T06:09:41.539Z,15.10
2018-05-11T06:10:41.735Z,15.00
2018-05-11T06:11:41.905Z,17.40
2018-05-11T06:12:42.089Z,17.90
2018-05-11T06:13:42.273Z,15.30
2018-05-11T06:14:42.455Z,15.00
2018-05-11T06:15:42.678Z,17.30
2018-05-11T06:16:42.850Z,15.80
2018-05-11T06:17:43.095Z,17.70
2018-05-11T06:18:43.167Z,14.80
2018-05-11T06:19:43.347Z,15.30
2018-05-11T06:20:43.541Z,14.70
2018-05-11T06:21:43.717Z,14.70
2018-05-11T06:22:43.903Z,13.90
2018-05-11T06:23:44.083Z,12.30
2018-05-11T06:24:44.345Z,10.80
2018-05-11T06:25:44.448Z,13.20
2018-05-11T06:26:44.640Z,13.00
2018-05-11T06:27:44.825Z,12.70
2018-05-11T06:28:45.009Z,13.00
2018-05-11T06:29:45.192Z,11.90
2018-05-11T06:30:45.373Z,12.20
2018-05-11T06:31:45.571Z,11.20
2018-05-11T06:32:45.758Z,11.50
2018-05-11T06:33:45.938Z,14.30
2018-05-11T06:34:46.126Z,11.20
2018-05-11T06:35:46.316Z,11.40
2018-05-11T06:36:46.507Z,11.30
2018-05-11T06:37:46.686Z,13.70
2018-05-11T06:38:46.870Z,11.70
2018-05-11T06:39:47.061Z,11.40
2018-05-11T06:40:47.243Z,11.50
2018-05-11T06:41:47.428Z,10.80
2018-05-11T06:42:47.617Z,10.80
2018-05-11T06:43:47.790Z,11.40
2018-05-11T06:44:47.969Z,12.00
2018-05-11T06:45:48.156Z,10.00
2018-05-11T06:46:48.377Z,11.70
2018-05-11T06:47:48.563Z,11.10
2018-05-11T06:48:48.754Z,12.40
2018-05-11T06:49:48.934Z,10.50
2018-05-11T06:50:49.126Z,11.30
2018-05-11T06:51:49.311Z,11.30
2018-05-11T06:52:49.544Z,13.60
2018-05-11T06:53:49.687Z,12.10
2018-05-11T06:54:49.872Z,11.80
2018-05-11T06:56:50.250Z,13.70
2018-05-11T06:57:50.661Z,13.00
2018-05-11T06:58:50.870Z,12.60
2018-05-11T06:59:50.956Z,12.80
2018-05-11T07:00:51.116Z,11.90
2018-05-11T07:01:51.244Z,12.00
2018-05-11T07:02:51.393Z,14.00
2018-05-11T07:03:51.585Z,13.80
2018-05-11T07:04:51.731Z,13.90
2018-05-11T07:05:51.890Z,15.50
2018-05-11T07:06:52.081Z,12.30
2018-05-11T07:07:52.361Z,13.20
2018-05-11T07:08:52.464Z,13.40
2018-05-11T07:09:52.617Z,13.50
2018-05-11T07:10:52.795Z,14.70
2018-05-11T07:11:52.969Z,11.60
2018-05-11T07:12:53.153Z,14.20
2018-05-11T07:13:53.358Z,12.60
2018-05-11T07:14:53.505Z,13.00
2018-05-11T07:15:53.688Z,13.70
2018-05-11T07:16:53.850Z,11.70
2018-05-11T07:17:54.055Z,13.40
2018-05-11T07:18:54.216Z,13.00
2018-05-11T07:19:54.383Z,12.00
2018-05-11T07:20:54.581Z,12.10
2018-05-11T07:21:54.763Z,12.60
2018-05-11T07:22:54.939Z,13.60
2018-05-11T07:23:55.353Z,14.60
2018-05-11T07:24:55.271Z,13.40
2018-05-11T07:25:55.435Z,12.30
2018-05-11T07:26:55.597Z,12.60
2018-05-11T07:27:55.795Z,12.80
2018-05-11T07:28:55.936Z,13.70
2018-05-11T07:29:56.112Z,13.80
2018-05-11T07:30:56.303Z,13.00
2018-05-11T07:31:56.498Z,13.80
2018-05-11T07:32:56.676Z,12.70
2018-05-11T07:33:56.848Z,13.80
2018-05-11T07:34:57.095Z,12.60
2018-05-11T07:35:57.206Z,13.30
2018-05-11T07:36:57.402Z,13.00
2018-05-11T07:37:57.591Z,13.80
2018-05-11T07:38:57.774Z,14.40
2018-05-11T07:39:58.167Z,14.30
2018-05-11T07:40:58.349Z,13.00
2018-05-11T07:41:58.284Z,13.00
2018-05-11T07:42:58.456Z,14.00
2018-05-11T07:43:58.638Z,12.80
2018-05-11T07:44:58.858Z,14.20
2018-05-11T07:45:58.981Z,14.40
2018-05-11T07:46:59.438Z,13.80
2018-05-11T07:47:59.361Z,13.80
2018-05-11T07:48:59.548Z,13.70
2018-05-11T07:50:59.980Z,14.70
2018-05-11T07:52:00.079Z,15.50
2018-05-11T07:53:00.947Z,14.20
2018-05-11T07:54:00.437Z,15.60
2018-05-11T07:55:00.647Z,14.40
2018-05-11T07:56:00.779Z,15.10
2018-05-11T07:57:00.954Z,15.80
2018-05-11T07:58:01.150Z,15.50
2018-05-11T07:59:01.307Z,17.50
2018-05-11T08:00:01.509Z,17.00
2018-05-11T08:01:01.724Z,15.90
2018-05-11T08:02:01.890Z,15.20
2018-05-11T08:03:02.051Z,16.10
2018-05-11T08:04:02.368Z,17.20
2018-05-11T08:05:02.415Z,15.50
2018-05-11T08:06:02.594Z,15.70
2018-05-11T08:07:02.743Z,16.50
2018-05-11T08:08:02.907Z,16.10
2018-05-11T08:09:03.099Z,17.50
2018-05-11T08:10:03.250Z,15.70
2018-05-11T08:11:03.450Z,16.50
2018-05-11T08:12:03.588Z,14.70
2018-05-11T08:13:03.763Z,15.40
2018-05-11T08:14:04.012Z,15.80
2018-05-11T08:15:04.117Z,14.20
2018-05-11T08:16:04.286Z,15.50
2018-05-11T08:17:04.775Z,16.50
2018-05-11T08:18:04.611Z,17.50
2018-05-11T08:19:04.796Z,15.70
2018-05-11T08:20:04.977Z,12.70
2018-05-11T08:21:05.161Z,14.60
2018-05-11T08:22:05.353Z,13.70
2018-05-11T08:23:05.501Z,15.10
2018-05-11T08:24:05.695Z,15.90
2018-05-11T08:25:05.891Z,15.40
2018-05-11T08:26:06.077Z,16.50
2018-05-11T08:27:06.510Z,14.90
2018-05-11T08:28:06.419Z,14.40
2018-05-11T08:29:06.582Z,16.90
2018-05-11T08:30:06.757Z,15.00
2018-05-11T08:31:06.943Z,13.70
2018-05-11T08:32:07.176Z,14.40
2018-05-11T08:33:07.343Z,13.40
2018-05-11T08:34:07.487Z,13.20
2018-05-11T08:35:07.689Z,18.10
2018-05-11T08:36:07.868Z,19.00
2018-05-11T08:38:08.325Z,15.50
2018-05-11T08:39:08.441Z,25.20
2018-05-11T08:40:08.591Z,15.00
2018-05-11T08:41:08.799Z,17.80
2018-05-11T08:42:08.954Z,15.20
2018-05-11T08:43:09.117Z,17.70
2018-05-11T08:44:09.285Z,14.20
2018-05-11T08:45:09.481Z,12.80
2018-05-11T08:46:09.648Z,16.10
2018-05-11T08:47:09.788Z,14.50
2018-05-11T08:48:09.961Z,18.80
2018-05-11T08:49:10.160Z,13.70
2018-05-11T08:50:10.324Z,12.40
2018-05-11T08:51:10.491Z,13.90
2018-05-11T08:52:10.657Z,10.50
2018-05-11T08:53:10.833Z,11.40
2018-05-11T08:54:11.017Z,12.20
2018-05-11T08:55:11.207Z,10.20
2018-05-11T08:56:11.385Z,11.80
2018-05-11T08:57:11.656Z,11.70
2018-05-11T08:58:11.702Z,11.90
2018-05-11T08:59:11.846Z,10.60
2018-05-11T09:00:12.010Z,8.80
2018-05-11T09:02:12.358Z,8.80
2018-05-11T09:03:12.529Z,10.20
2018-05-11T09:04:12.713Z,8.20
2018-05-11T09:05:12.936Z,8.90
2018-05-11T09:06:13.081Z,9.40
2018-05-11T09:07:13.282Z,8.10
2018-05-11T09:08:13.490Z,7.50
2018-05-11T09:09:13.650Z,9.50
2018-05-11T09:10:13.797Z,8.50
2018-05-11T09:11:13.967Z,10.50
2018-05-11T09:12:14.173Z,8.80
2018-05-11T09:13:14.337Z,10.70
2018-05-11T09:14:14.555Z,10.90
2018-05-11T09:15:14.739Z,12.60
2018-05-11T09:16:14.918Z,13.20
2018-05-11T09:17:15.455Z,10.80
2018-05-11T09:18:15.307Z,10.30
2018-05-11T09:19:15.537Z,12.30
2018-05-11T09:20:15.670Z,9.20
2018-05-11T09:21:15.828Z,8.70
2018-05-11T09:22:16.022Z,9.00
2018-05-11T09:23:16.198Z,11.00
2018-05-11T09:24:16.398Z,9.90
2018-05-11T09:25:16.553Z,13.00
2018-05-11T09:26:16.730Z,9.70
2018-05-11T09:27:16.923Z,12.50
2018-05-11T09:28:17.157Z,9.20
2018-05-11T09:29:17.272Z,9.10
2018-05-11T09:30:17.469Z,9.50
2018-05-11T09:31:17.673Z,11.70
2018-05-11T09:32:17.900Z,10.90
2018-05-11T09:33:18.041Z,8.50
2018-05-11T09:34:18.230Z,9.30
2018-05-11T09:35:18.376Z,9.30
2018-05-11T09:36:18.557Z,9.70
2018-05-11T09:37:18.773Z,12.60
2018-05-11T09:38:18.965Z,9.30
2018-05-11T09:39:19.154Z,11.30
2018-05-11T09:40:19.385Z,11.70
2018-05-11T09:41:19.580Z,13.00
2018-05-11T09:42:19.702Z,10.00
2018-05-11T09:43:20.029Z,15.40
2018-05-11T09:44:20.059Z,11.90
2018-05-11T09:45:21.862Z,13.10
2018-05-11T09:46:20.588Z,10.30
2018-05-11T09:47:20.667Z,10.20
2018-05-11T09:48:20.880Z,11.00
2018-05-11T09:49:21.145Z,11.40
2018-05-11T09:50:21.188Z,11.50
2018-05-11T09:51:21.545Z,13.30
2018-05-11T09:52:21.537Z,10.20
2018-05-11T09:53:21.747Z,11.50
2018-05-11T09:54:22.108Z,10.00
2018-05-11T09:55:23.324Z,11.30
2018-05-11T09:56:22.318Z,10.10
2018-05-11T09:57:22.515Z,11.40
2018-05-11T09:58:22.694Z,8.70
2018-05-11T09:59:22.893Z,10.20
2018-05-11T10:00:23.093Z,9.90
2018-05-11T10:01:23.295Z,9.70
2018-05-11T10:02:23.420Z,10.30
2018-05-11T10:03:23.741Z,8.20
2018-05-11T10:04:23.784Z,8.80
2018-05-11T10:05:24.003Z,10.70
2018-05-11T10:06:24.161Z,7.70
2018-05-11T10:07:24.325Z,9.20
2018-05-11T10:08:24.498Z,8.50
2018-05-11T10:09:24.700Z,9.20
2018-05-11T10:10:24.880Z,9.30
2018-05-11T10:11:25.035Z,8.40
2018-05-11T10:12:25.238Z,9.20
2018-05-11T10:13:25.435Z,10.20
2018-05-11T10:14:25.619Z,8.40
2018-05-11T10:15:25.769Z,7.90
2018-05-11T10:16:25.973Z,10.20
2018-05-11T10:17:26.151Z,10.50
2018-05-11T10:18:26.356Z,10.60
2018-05-11T10:19:26.605Z,9.40
2018-05-11T10:20:26.757Z,11.20
2018-05-11T10:21:26.884Z,12.40
2018-05-11T10:22:27.098Z,10.30
2018-05-11T10:23:27.249Z,12.80
2018-05-11T10:24:27.500Z,12.50
2018-05-11T10:25:27.612Z,11.30
2018-05-11T10:26:28.378Z,10.60
2018-05-11T10:27:28.005Z,9.50
2018-05-11T10:28:28.140Z,9.40
2018-05-11T10:29:28.325Z,9.80
2018-05-11T10:30:28.507Z,10.90
2018-05-11T10:31:28.745Z,7.00
2018-05-11T10:32:28.892Z,9.50
2018-05-11T10:33:29.058Z,8.70
2018-05-11T10:34:29.254Z,9.00
2018-05-11T10:35:29.405Z,7.70
2018-05-11T10:36:29.626Z,7.40
2018-05-11T10:37:29.833Z,8.20
2018-05-11T10:38:29.922Z,8.70
2018-05-11T10:39:30.168Z,9.10
2018-05-11T10:40:30.240Z,8.20
2018-05-11T10:41:30.544Z,8.10
2018-05-11T10:42:30.610Z,9.90
2018-05-11T10:43:30.847Z,9.40
2018-05-11T10:44:30.966Z,12.60
2018-05-11T10:45:31.176Z,9.80
2018-05-11T10:46:31.332Z,9.50
2018-05-11T10:47:31.511Z,11.90
2018-05-11T10:48:31.731Z,11.20
2018-05-11T10:49:31.919Z,8.40
2018-05-11T10:50:32.070Z,12.70
2018-05-11T10:51:32.249Z,14.40
2018-05-11T10:52:32.439Z,8.70
2018-05-11T10:53:32.595Z,11.10
2018-05-11T10:54:32.795Z,7.70
2018-05-11T10:55:32.954Z,7.50
2018-05-11T10:56:33.157Z,8.20
2018-05-11T10:57:33.316Z,7.00
2018-05-11T10:58:33.541Z,17.90
2018-05-11T10:59:33.752Z,15.30
2018-05-11T11:00:33.887Z,10.60
2018-05-11T11:01:34.155Z,16.30
2018-05-11T11:02:34.234Z,13.20
2018-05-11T11:03:34.473Z,13.40
2018-05-11T11:04:34.642Z,12.80
2018-05-11T11:05:34.801Z,9.40
2018-05-11T11:06:34.945Z,6.50
2018-05-11T11:07:35.139Z,9.20
2018-05-11T11:08:35.320Z,10.10
2018-05-11T11:09:35.607Z,7.60
2018-05-11T11:10:35.976Z,8.90
2018-05-11T11:11:35.843Z,10.70
2018-05-11T11:12:36.055Z,11.30
2018-05-11T11:13:36.314Z,8.40
2018-05-11T11:14:36.419Z,11.70
2018-05-11T11:15:36.591Z,11.50
2018-05-11T11:16:36.749Z,10.30
2018-05-11T11:17:36.926Z,11.00
2018-05-11T11:18:37.078Z,9.20
2018-05-11T11:19:37.260Z,9.10
2018-05-11T11:20:37.418Z,12.60
2018-05-11T11:21:37.616Z,10.60
2018-05-11T11:22:37.781Z,10.50
2018-05-11T11:23:38.022Z,12.30
2018-05-11T11:24:38.198Z,8.60
2018-05-11T11:25:38.384Z,7.50
2018-05-11T11:26:38.536Z,8.00
2018-05-11T11:27:39.218Z,7.90
2018-05-11T11:28:38.886Z,7.40
2018-05-11T11:29:39.046Z,6.60
2018-05-11T11:30:39.225Z,10.30
2018-05-11T11:31:39.403Z,8.80
2018-05-11T11:32:39.594Z,8.50
2018-05-11T11:33:39.758Z,9.00
2018-05-11T11:34:39.990Z,9.80
2018-05-11T11:35:40.128Z,7.80
2018-05-11T11:36:40.317Z,14.80
2018-05-11T11:37:40.530Z,16.30
2018-05-11T11:38:40.680Z,11.80
2018-05-11T11:39:40.874Z,30.80
2018-05-11T11:40:41.072Z,23.30
2018-05-11T11:41:41.236Z,29.70
2018-05-11T11:42:41.395Z,10.80
2018-05-11T11:43:41.566Z,14.60
2018-05-11T11:44:41.746Z,30.40
2018-05-11T11:45:41.955Z,27.70
2018-05-11T11:46:42.209Z,9.10
2018-05-11T11:47:42.343Z,11.90
2018-05-11T11:48:42.501Z,10.60
2018-05-11T11:49:42.700Z,9.50
2018-05-11T11:50:42.865Z,12.60
2018-05-11T11:51:43.076Z,7.70
2018-05-11T11:52:43.241Z,7.40
2018-05-11T11:53:43.437Z,10.70
2018-05-11T11:54:43.624Z,10.20
2018-05-11T11:55:43.773Z,9.20
2018-05-11T11:56:43.979Z,9.00
2018-05-11T11:58:44.293Z,7.10
2018-05-11T11:59:44.508Z,6.90
2018-05-11T12:00:44.771Z,13.50
2018-05-11T12:01:44.886Z,9.60
2018-05-11T12:02:45.090Z,13.60
2018-05-11T12:03:45.334Z,9.90
2018-05-11T12:04:45.544Z,8.80
2018-05-11T12:05:45.552Z,9.20
2018-05-11T12:06:45.729Z,9.60
2018-05-11T12:07:45.924Z,8.80
2018-05-11T12:08:46.106Z,10.90
2018-05-11T12:09:46.259Z,8.60
2018-05-11T12:10:46.443Z,9.50
2018-05-11T12:11:46.643Z,9.90
2018-05-11T12:12:46.843Z,9.00
2018-05-11T12:13:47.061Z,8.60
2018-05-11T12:14:47.185Z,7.90
2018-05-11T12:15:47.540Z,8.60
2018-05-11T12:16:47.723Z,9.70
2018-05-11T12:17:48.023Z,7.40
2018-05-11T12:18:47.896Z,6.90
2018-05-11T12:19:48.084Z,9.90
2018-05-11T12:20:48.258Z,8.40
2018-05-11T12:21:48.779Z,6.50
2018-05-11T12:22:48.606Z,6.00
2018-05-11T12:23:48.786Z,7.20
2018-05-11T12:24:49.023Z,6.10
2018-05-11T12:25:49.138Z,7.80
2018-05-11T12:26:49.325Z,7.40
2018-05-11T12:27:49.475Z,6.60
2018-05-11T12:28:49.650Z,6.80
2018-05-11T12:29:49.857Z,7.10
2018-05-11T12:30:50.015Z,5.70
2018-05-11T12:31:50.514Z,7.10
2018-05-11T12:32:50.412Z,6.80
2018-05-11T12:33:50.588Z,7.40
2018-05-11T12:34:50.771Z,7.30
2018-05-11T12:35:50.968Z,7.60
2018-05-11T12:36:51.137Z,5.80
2018-05-11T12:37:51.324Z,8.80
2018-05-11T12:38:51.508Z,5.80
2018-05-11T12:39:51.706Z,8.00
2018-05-11T12:40:51.871Z,7.10
2018-05-11T12:41:52.058Z,6.50
2018-05-11T12:42:52.336Z,8.50
2018-05-11T12:43:52.430Z,5.70
2018-05-11T12:44:52.615Z,7.70
2018-05-11T12:45:52.796Z,7.10
2018-05-11T12:46:52.983Z,6.10
2018-05-11T12:47:53.172Z,5.70
2018-05-11T12:48:53.368Z,7.20
2018-05-11T12:49:53.543Z,8.90
2018-05-11T12:50:53.737Z,6.20
2018-05-11T12:51:53.922Z,7.90
2018-05-11T12:52:54.164Z,7.60
2018-05-11T12:53:54.348Z,5.40
2018-05-11T12:54:54.483Z,6.20
2018-05-11T12:55:54.663Z,5.90
2018-05-11T12:56:54.848Z,6.90
2018-05-11T12:57:55.039Z,7.40
2018-05-11T12:58:55.223Z,8.30
2018-05-11T12:59:55.658Z,5.10
2018-05-11T13:00:55.586Z,7.90
2018-05-11T13:01:55.785Z,6.80
2018-05-11T13:02:55.977Z,6.60
2018-05-11T13:03:56.163Z,5.40
2018-05-11T13:04:56.338Z,5.70
2018-05-11T13:05:56.524Z,6.80
2018-05-11T13:06:56.709Z,4.70
2018-05-11T13:07:56.899Z,5.90
2018-05-11T13:08:57.108Z,5.50
2018-05-11T13:09:57.516Z,6.70
2018-05-11T13:10:57.457Z,6.10